Midway, WV (25878)

08:11 AM EDT die 29o May, anno 2015 (GMT -0400)
Southeast Beckley | | Change Station
CLOSE
Current Station
Personal Weather Stations
Location: Beckley, WV
Elevation: 2365 ft
Nearby Weather Stations

Elev 2365 ft 37.76 °N, 81.16 °W | Updated 4 seconds ago

Partialiter Nubila
Partialiter Nubila
66.6 °F
Feels Like 66.6 °F
N
3.5
Ventus Variabilis Ventus from Magis Zephyrus quam Auster
Gusts 3.5 mph

Hodie
High -- | Low -- °F
--% Chance of Precip.
Yesterday
High -- | Low -- °F
Precip. -- in
6:06 AM 8:38 PM
Waxing Gibbous, 83% visible
Pressio 30.19 in
Visibilitas 10.0 milia passuum
Clouds Few 12000 ft
Frigus in quo Ros apparet 63 °F
Umor 89%
Rainfall 0.00 in
Snow Depth Not available.
UV 1 out of 12
Pollen 5.90 out of 12
Air Quality Not available.
Flu Activity Sporadic
METAR KBKW 291151Z AUTO 13006KT 10SM FEW120 20/16 A3029 RMK AO2 SLP223 T02000156 10200 20161 51016

More Conditions Fewer Conditions

Pressio 30.19 in
Visibilitas 10.0 milia passuum
Clouds Few 12000 ft
Frigus in quo Ros apparet 63 °F
Umor 89%
Rainfall 0.00 in
Snow Depth Not available.
UV 1 out of 12
Pollen 5.90 out of 12
Air Quality Not available.
Flu Activity Sporadic
METAR KBKW 291151Z AUTO 13006KT 10SM FEW120 20/16 A3029 RMK AO2 SLP223 T02000156 10200 20161 51016

More Conditions Fewer Conditions

10-Day Weather Forecast

Almanac

Astronomy

May. 29, 2015 Rise Set
Actual Time
Civil Twilight
Nautical Twilight
Astronomical Twilight
Moon
Length Of Visible Light
Length of Day
Tomorrow will be .
, % of the Moon is Illuminated

Today's Extremes

State Highs State Lows

Community

WunderPhotos

Upload Photos

1,825,246 photos uploaded!

WunderBlogs® & News

Nearby

Air Quality

  Air Quality AQ Index Pollutant
Not available.

Snow Depth

Station Depth Elevation

Earthquake Activity

City Distance Mag. Time & Date
Minimum magnitude displayed is 2.5.

Coastal Water Temperatures

Locus Calor

Stations

Nearby Weather Stations

Station Location Temp Frigus Venti Frigus in quo Ros apparet Umor Ventus Precip. Elev Renovata Type